createdAt,value
2022-08-05T00:00:16.107Z,97842.50
2022-08-05T00:02:44.083Z,97841.28
2022-08-05T00:06:01.594Z,97839.22
2022-08-05T00:08:32.794Z,97839.78
2022-08-05T00:10:56.199Z,97833.59
2022-08-05T00:13:38.391Z,97833.66
2022-08-05T00:16:08.434Z,97828.50
2022-08-05T00:18:36.216Z,97829.34
2022-08-05T00:21:06.899Z,97832.63
2022-08-05T00:23:46.044Z,97830.59
2022-08-05T00:26:20.630Z,97834.84
2022-08-05T00:28:47.238Z,97836.53
2022-08-05T00:31:16.028Z,97835.22
2022-08-05T00:34:56.351Z,97833.19
2022-08-05T00:37:09.017Z,97841.44
2022-08-05T00:39:16.845Z,97841.44
2022-08-05T00:41:51.838Z,97843.56
2022-08-05T00:44:23.195Z,97847.16
2022-08-05T00:47:04.056Z,97849.13
2022-08-05T00:49:44.699Z,97845.97
2022-08-05T00:52:17.923Z,97863.13
2022-08-05T00:54:44.450Z,97870.53
2022-08-05T00:57:11.069Z,97872.03
2022-08-05T00:59:44.389Z,97890.13
2022-08-05T01:02:11.352Z,97888.41
2022-08-05T01:04:37.971Z,97887.03
2022-08-05T01:07:08.943Z,97898.31
2022-08-05T01:09:41.790Z,97911.81
2022-08-05T01:12:18.195Z,97903.38
2022-08-05T01:14:54.414Z,97904.94
2022-08-05T01:17:31.835Z,97890.84
2022-08-05T01:20:09.723Z,97902.94
2022-08-05T01:22:59.541Z,97915.63
2022-08-05T01:26:02.034Z,97914.13
2022-08-05T01:28:39.365Z,97929.81
2022-08-05T01:31:18.177Z,97928.38
2022-08-05T01:34:05.372Z,97922.34
2022-08-05T01:36:42.302Z,97931.47
2022-08-05T01:39:15.818Z,97929.94
2022-08-05T01:42:03.392Z,97925.34
2022-08-05T01:44:34.195Z,97934.25
2022-08-05T01:47:02.488Z,97940.81
2022-08-05T01:50:00.092Z,97944.75
2022-08-05T01:52:21.039Z,97958.00
2022-08-05T01:54:58.848Z,97964.06
2022-08-05T01:58:09.880Z,97966.50
2022-08-05T02:00:19.810Z,97943.78
2022-08-05T02:02:55.058Z,97952.94
2022-08-05T02:05:24.934Z,97961.59
2022-08-05T02:08:00.101Z,97961.78
2022-08-05T02:10:34.696Z,97955.22
2022-08-05T02:13:16.902Z,97959.50
2022-08-05T02:15:47.546Z,97955.09
2022-08-05T02:18:37.339Z,97948.81
2022-08-05T02:21:21.904Z,97944.72
2022-08-05T02:23:50.642Z,97947.84
2022-08-05T02:26:22.300Z,97949.78
2022-08-05T02:28:50.104Z,97964.44
2022-08-05T02:31:24.527Z,97967.25
2022-08-05T02:33:59.921Z,97961.09
2022-08-05T02:36:27.920Z,97962.97
2022-08-05T02:39:00.436Z,97967.78
2022-08-05T02:41:28.604Z,97965.09
2022-08-05T02:44:11.897Z,97964.53
2022-08-05T02:46:43.877Z,97959.53
2022-08-05T02:49:21.940Z,97968.03
2022-08-05T02:52:02.967Z,97963.88
2022-08-05T02:54:34.496Z,97964.25
2022-08-05T02:57:10.266Z,97964.38
2022-08-05T02:59:52.119Z,97960.34
2022-08-05T03:02:20.742Z,97966.31
2022-08-05T03:04:53.348Z,97960.00
2022-08-05T03:08:00.073Z,97963.06
2022-08-05T03:10:08.382Z,97963.34
2022-08-05T03:12:37.315Z,97967.22
2022-08-05T03:15:06.724Z,97975.88
2022-08-05T03:17:41.695Z,97986.91
2022-08-05T03:20:10.258Z,97990.16
2022-08-05T03:22:37.095Z,98000.75
2022-08-05T03:25:31.984Z,97992.34
2022-08-05T03:27:59.401Z,97995.72
2022-08-05T03:30:33.508Z,98008.97
2022-08-05T03:33:04.021Z,98004.75
2022-08-05T03:35:33.804Z,98009.09
2022-08-05T03:38:01.129Z,98009.91
2022-08-05T03:40:31.834Z,98009.34
2022-08-05T03:43:15.959Z,97993.38
2022-08-05T03:45:57.201Z,97995.44
2022-08-05T03:48:26.641Z,98007.59
2022-08-05T03:52:48.980Z,98009.25
2022-08-05T03:55:51.688Z,98014.28
2022-08-05T03:56:46.671Z,98000.88
2022-08-05T03:59:29.148Z,97992.56
2022-08-05T04:02:15.016Z,97979.34
2022-08-05T04:04:44.898Z,97980.06
2022-08-05T04:07:11.727Z,97980.06
2022-08-05T04:09:53.434Z,97977.56
2022-08-05T04:12:23.730Z,97987.53
2022-08-05T04:14:51.507Z,97999.13
2022-08-05T04:17:18.155Z,97993.19
2022-08-05T04:19:46.753Z,97993.84
2022-08-05T04:22:21.338Z,97991.25
2022-08-05T04:24:52.603Z,97991.75
2022-08-05T04:27:42.206Z,97995.13
2022-08-05T04:30:08.720Z,98010.44
2022-08-05T04:32:35.780Z,98034.34
2022-08-05T04:35:03.950Z,98053.31
2022-08-05T04:38:02.038Z,98070.63
2022-08-05T04:40:19.786Z,98084.19
2022-08-05T04:42:46.557Z,98104.81
2022-08-05T04:45:23.058Z,98111.84
2022-08-05T04:48:18.556Z,98111.00
2022-08-05T04:51:03.365Z,98122.50
2022-08-05T04:53:38.781Z,98125.06
2022-08-05T04:56:33.837Z,98134.19
2022-08-05T04:58:55.933Z,98146.84
2022-08-05T05:01:33.465Z,98150.59
2022-08-05T05:04:09.575Z,98142.97
2022-08-05T05:06:44.521Z,98158.56
2022-08-05T05:09:17.318Z,98170.16
2022-08-05T05:11:54.571Z,98188.53
2022-08-05T05:14:31.664Z,98198.75
2022-08-05T05:17:03.298Z,98204.75
2022-08-05T05:19:37.272Z,98194.53
2022-08-05T05:22:23.406Z,98199.09
2022-08-05T05:24:57.263Z,98211.28
2022-08-05T05:27:25.247Z,98222.06
2022-08-05T05:30:15.589Z,98220.06
2022-08-05T05:32:56.092Z,98215.69
2022-08-05T05:35:22.987Z,98210.31
2022-08-05T05:38:00.285Z,98211.81
2022-08-05T05:40:29.428Z,98215.75
2022-08-05T05:42:56.790Z,98217.53
2022-08-05T05:45:24.677Z,98233.34
2022-08-05T05:48:06.724Z,98242.13
2022-08-05T05:50:44.108Z,98243.06
2022-08-05T05:53:22.571Z,98247.50
2022-08-05T05:55:51.812Z,98247.91
2022-08-05T05:58:31.681Z,98253.19
2022-08-05T06:01:12.189Z,98262.78
2022-08-05T06:03:53.659Z,98257.72
2022-08-05T06:06:30.843Z,98263.81
2022-08-05T06:08:58.598Z,98269.69
2022-08-05T06:11:25.992Z,98265.94
2022-08-05T06:13:54.265Z,98273.19
2022-08-05T06:16:30.495Z,98271.56
2022-08-05T06:19:01.087Z,98262.31
2022-08-05T06:21:36.889Z,98256.81
2022-08-05T06:24:11.813Z,98262.81
2022-08-05T06:26:52.061Z,98254.84
2022-08-05T06:29:25.221Z,98242.72
2022-08-05T06:32:21.183Z,98248.00
2022-08-05T06:34:53.482Z,98245.56
2022-08-05T06:37:39.402Z,98227.66
2022-08-05T06:40:07.748Z,98224.09
2022-08-05T06:42:34.298Z,98236.72
2022-08-05T06:45:06.457Z,98244.75
2022-08-05T06:48:46.945Z,98242.53
2022-08-05T06:50:21.967Z,98244.09
2022-08-05T06:53:03.986Z,98252.72
2022-08-05T06:55:36.412Z,98250.25
2022-08-05T06:58:19.780Z,98240.59
2022-08-05T07:00:47.175Z,98241.28
2022-08-05T07:03:14.064Z,98253.94
2022-08-05T07:05:43.520Z,98248.13
2022-08-05T07:08:12.899Z,98261.28
2022-08-05T07:10:52.345Z,98261.28
2022-08-05T07:13:56.823Z,98265.56
2022-08-05T07:17:56.846Z,98272.59
2022-08-05T07:22:17.025Z,98284.41
2022-08-05T07:24:43.763Z,98295.22
2022-08-05T07:27:10.669Z,98312.34
2022-08-05T07:30:28.132Z,98304.28
2022-08-05T07:32:24.286Z,98294.34
2022-08-05T07:34:57.947Z,98300.53
2022-08-05T07:37:25.473Z,98294.00
2022-08-05T07:40:26.706Z,98283.91
2022-08-05T07:42:50.112Z,98288.97
2022-08-05T07:45:16.676Z,98298.53
2022-08-05T07:47:58.323Z,98298.03
2022-08-05T07:50:29.015Z,98299.19
2022-08-05T07:53:00.125Z,98298.47
2022-08-05T07:56:05.184Z,98294.22
2022-08-05T07:58:55.012Z,98291.72
2022-08-05T08:01:00.108Z,98293.44
2022-08-05T08:03:44.249Z,98300.50
2022-08-05T08:06:11.485Z,98302.50
2022-08-05T08:08:38.018Z,98296.38
2022-08-05T08:11:04.565Z,98300.75
2022-08-05T08:13:49.264Z,98297.38
2022-08-05T08:16:49.977Z,98295.03
2022-08-05T08:19:08.557Z,98288.34
2022-08-05T08:21:55.130Z,98297.53
2022-08-05T08:24:21.728Z,98301.44
2022-08-05T08:27:08.364Z,98295.75
2022-08-05T08:30:05.680Z,98292.41
2022-08-05T08:32:27.885Z,98288.34
2022-08-05T08:34:54.885Z,98286.00
2022-08-05T08:37:28.024Z,98288.00
2022-08-05T08:41:51.255Z,98279.16
2022-08-05T08:45:23.125Z,98282.81
2022-08-05T08:47:34.590Z,98279.63
2022-08-05T08:50:05.937Z,98268.72
2022-08-05T08:52:42.218Z,98270.31
2022-08-05T08:55:14.236Z,98261.25
2022-08-05T08:57:58.377Z,98257.81
2022-08-05T09:00:25.582Z,98266.75
2022-08-05T09:02:54.291Z,98262.63
2022-08-05T09:05:38.733Z,98254.25
2022-08-05T09:08:09.719Z,98253.19
2022-08-05T09:10:36.538Z,98259.69
2022-08-05T09:13:07.002Z,98248.56
2022-08-05T09:15:37.190Z,98250.41
2022-08-05T09:18:07.212Z,98246.34
2022-08-05T09:20:38.083Z,98240.94
2022-08-05T09:23:18.553Z,98230.00
2022-08-05T09:26:01.097Z,98223.72
2022-08-05T09:28:32.182Z,98225.63
2022-08-05T09:31:18.166Z,98222.16
2022-08-05T09:33:56.626Z,98210.66
2022-08-05T09:36:27.566Z,98209.81
2022-08-05T09:39:16.567Z,98205.38
2022-08-05T09:42:04.644Z,98204.44
2022-08-05T09:44:42.915Z,98202.19
2022-08-05T09:47:12.660Z,98192.22
2022-08-05T09:50:00.460Z,98202.00
2022-08-05T09:52:35.723Z,98198.13
2022-08-05T09:55:58.238Z,98185.41
2022-08-05T09:57:54.539Z,98192.19
2022-08-05T10:00:25.817Z,98193.91
2022-08-05T10:02:58.677Z,98194.91
2022-08-05T10:05:29.685Z,98198.25
2022-08-05T10:08:35.289Z,98202.31
2022-08-05T10:10:54.564Z,98199.03
2022-08-05T10:13:45.593Z,98201.22
2022-08-05T10:16:41.655Z,98208.03
2022-08-05T10:19:11.642Z,98202.31
2022-08-05T10:21:40.433Z,98198.69
2022-08-05T10:24:12.972Z,98189.19
2022-08-05T10:26:51.810Z,98189.41
2022-08-05T10:29:24.128Z,98187.81
2022-08-05T10:32:53.682Z,98192.16
2022-08-05T10:34:58.189Z,98194.41
2022-08-05T10:37:41.347Z,98190.28
2022-08-05T10:40:20.392Z,98183.94
2022-08-05T10:42:58.801Z,98187.38
2022-08-05T10:45:39.778Z,98186.34
2022-08-05T10:48:56.604Z,98181.66
2022-08-05T10:51:28.946Z,98183.34
2022-08-05T10:54:00.838Z,98179.13
2022-08-05T10:56:45.637Z,98180.56
2022-08-05T11:00:03.740Z,98175.31
2022-08-05T11:02:14.521Z,98173.94
2022-08-05T11:04:57.886Z,98183.69
2022-08-05T11:07:33.074Z,98171.25
2022-08-05T11:10:22.291Z,98173.25
2022-08-05T11:12:55.903Z,98173.25
2022-08-05T11:16:00.325Z,98178.22
2022-08-05T11:18:25.774Z,98181.72
2022-08-05T11:20:52.844Z,98187.00
2022-08-05T11:24:03.948Z,98177.78
2022-08-05T11:26:32.539Z,98179.72
2022-08-05T11:29:06.868Z,98180.91
2022-08-05T11:31:58.661Z,98187.53
2022-08-05T11:34:52.215Z,98184.81
2022-08-05T11:38:29.464Z,98185.41
2022-08-05T11:41:14.153Z,98188.63
2022-08-05T11:44:11.490Z,98189.34
2022-08-05T11:47:09.829Z,98181.75
2022-08-05T11:49:39.340Z,98187.72
2022-08-05T11:52:11.761Z,98176.31
2022-08-05T11:54:40.465Z,98180.97
2022-08-05T11:57:25.287Z,98178.34
2022-08-05T11:59:54.968Z,98169.16
2022-08-05T12:02:30.047Z,98170.13
2022-08-05T12:05:06.968Z,98163.56
2022-08-05T12:08:08.420Z,98166.06
2022-08-05T12:10:38.530Z,98160.09
2022-08-05T12:13:28.130Z,98161.69
2022-08-05T12:16:14.141Z,98155.88
2022-08-05T12:18:42.652Z,98158.59
2022-08-05T12:21:18.154Z,98154.56
2022-08-05T12:24:32.635Z,98148.84
2022-08-05T12:27:01.124Z,98157.13
2022-08-05T12:29:38.750Z,98158.97
2022-08-05T12:32:07.539Z,98155.34
2022-08-05T12:34:37.445Z,98151.28
2022-08-05T12:37:10.921Z,98143.44
2022-08-05T12:39:51.382Z,98142.25
2022-08-05T12:42:20.370Z,98139.81
2022-08-05T12:44:47.509Z,98134.66
2022-08-05T12:47:25.463Z,98133.53
2022-08-05T12:50:03.753Z,98134.50
2022-08-05T12:52:39.081Z,98133.22
2022-08-05T12:55:25.070Z,98127.88
2022-08-05T12:58:49.607Z,98135.38
2022-08-05T13:02:02.434Z,98129.16
2022-08-05T13:03:35.180Z,98128.69
2022-08-05T13:06:11.610Z,98129.47
2022-08-05T13:08:38.751Z,98130.25
2022-08-05T13:11:07.812Z,98125.38
2022-08-05T13:14:06.053Z,98117.22
2022-08-05T13:16:24.947Z,98120.84
2022-08-05T13:18:57.663Z,98126.72
2022-08-05T13:21:27.691Z,98121.16
2022-08-05T13:23:55.603Z,98119.91
2022-08-05T13:26:27.209Z,98127.41
2022-08-05T13:28:57.140Z,98110.69
2022-08-05T13:31:34.125Z,98111.19
2022-08-05T13:34:24.713Z,98112.91
2022-08-05T13:36:52.747Z,98114.28
2022-08-05T13:39:24.554Z,98107.31
2022-08-05T13:42:06.748Z,98107.31
2022-08-05T13:44:34.747Z,98105.38
2022-08-05T13:47:08.670Z,98104.16
2022-08-05T13:49:35.588Z,98094.03
2022-08-05T13:52:13.340Z,98093.03
2022-08-05T13:54:40.559Z,98082.25
2022-08-05T13:57:09.537Z,98089.56
2022-08-05T13:59:37.320Z,98089.13
2022-08-05T14:02:26.489Z,98086.31
2022-08-05T14:05:11.488Z,98084.28
2022-08-05T14:08:00.389Z,98084.13
2022-08-05T14:10:28.793Z,98081.28
2022-08-05T14:12:57.221Z,98083.38
2022-08-05T14:16:05.640Z,98090.38
2022-08-05T14:18:14.961Z,98088.00
2022-08-05T14:20:46.973Z,98083.06
2022-08-05T14:23:23.822Z,98090.75
2022-08-05T14:25:58.090Z,98081.19
2022-08-05T14:28:28.970Z,98081.91
2022-08-05T14:30:56.880Z,98077.19
2022-08-05T14:33:24.228Z,98076.81
2022-08-05T14:35:52.291Z,98086.13
2022-08-05T14:38:32.426Z,98089.19
2022-08-05T14:41:01.363Z,98090.06
2022-08-05T14:43:59.342Z,98082.88
2022-08-05T14:46:14.633Z,98100.41
2022-08-05T14:48:41.433Z,98112.81
2022-08-05T14:51:08.359Z,98105.59
2022-08-05T14:53:44.154Z,98112.69
2022-08-05T14:56:11.862Z,98106.31
2022-08-05T14:58:47.914Z,98108.25
2022-08-05T15:01:24.494Z,98107.44
2022-08-05T15:04:09.938Z,98127.28
2022-08-05T15:06:38.806Z,98117.78
2022-08-05T15:09:07.211Z,98115.06
2022-08-05T15:11:51.292Z,98118.34
2022-08-05T15:14:35.115Z,98124.84
2022-08-05T15:17:04.786Z,98125.13
2022-08-05T15:19:32.027Z,98120.75
2022-08-05T15:22:01.060Z,98140.50
2022-08-05T15:24:28.384Z,98157.47
2022-08-05T15:26:55.827Z,98197.13
2022-08-05T15:29:22.814Z,98199.53
2022-08-05T15:31:52.940Z,98163.03
2022-08-05T15:34:32.938Z,98123.53
2022-08-05T15:37:06.268Z,98148.00
2022-08-05T15:40:58.219Z,98171.78
2022-08-05T15:42:53.630Z,98168.31
2022-08-05T15:45:14.755Z,98163.59
2022-08-05T15:47:42.595Z,98167.91
2022-08-05T15:50:15.472Z,98175.44
2022-08-05T15:52:53.029Z,98185.03
2022-08-05T15:55:24.691Z,98176.31
2022-08-05T15:57:52.073Z,98183.31
2022-08-05T16:00:26.278Z,98178.78
2022-08-05T16:02:59.814Z,98186.13
2022-08-05T16:05:28.437Z,98183.50
2022-08-05T16:07:55.198Z,98177.53
2022-08-05T16:10:25.622Z,98174.84
2022-08-05T16:12:53.761Z,98181.91
2022-08-05T16:15:23.521Z,98175.13
2022-08-05T16:17:58.086Z,98180.84
2022-08-05T16:20:28.974Z,98185.72
2022-08-05T16:22:59.593Z,98178.03
2022-08-05T16:25:33.828Z,98184.19
2022-08-05T16:28:10.299Z,98196.28
2022-08-05T16:30:37.914Z,98195.44
2022-08-05T16:33:07.960Z,98190.00
2022-08-05T16:35:42.173Z,98203.69
2022-08-05T16:38:23.769Z,98200.22
2022-08-05T16:41:00.858Z,98210.88
2022-08-05T16:43:31.951Z,98214.41
2022-08-05T16:46:05.057Z,98221.97
2022-08-05T16:48:41.002Z,98224.50
2022-08-05T16:51:12.621Z,98228.34
2022-08-05T16:54:04.050Z,98226.66
2022-08-05T16:56:36.525Z,98228.06
2022-08-05T16:59:21.192Z,98233.81
2022-08-05T17:01:54.997Z,98235.16
2022-08-05T17:04:27.980Z,98230.22
2022-08-05T17:07:01.709Z,98242.28
2022-08-05T17:09:38.930Z,98233.50
2022-08-05T17:12:18.374Z,98249.00
2022-08-05T17:14:50.340Z,98253.41
2022-08-05T17:17:20.337Z,98250.09
2022-08-05T17:19:55.450Z,98234.69
2022-08-05T17:22:26.047Z,98245.19
2022-08-05T17:25:02.169Z,98242.22
2022-08-05T17:27:38.075Z,98245.72
2022-08-05T17:30:19.017Z,98250.25
2022-08-05T17:33:01.686Z,98253.63
2022-08-05T17:35:32.616Z,98260.91
2022-08-05T17:38:18.850Z,98256.38
2022-08-05T17:40:47.945Z,98272.16
2022-08-05T17:43:46.562Z,98278.34
2022-08-05T17:46:07.112Z,98280.81
2022-08-05T17:48:39.712Z,98278.63
2022-08-05T17:51:12.381Z,98281.47
2022-08-05T17:53:42.672Z,98284.59
2022-08-05T17:56:17.279Z,98281.31
2022-08-05T17:58:45.204Z,98289.66
2022-08-05T18:01:15.664Z,98293.78
2022-08-05T18:04:04.482Z,98304.81
2022-08-05T18:06:41.281Z,98302.09
2022-08-05T18:09:18.684Z,98309.88
2022-08-05T18:11:52.491Z,98321.25
2022-08-05T18:14:20.614Z,98322.16
2022-08-05T18:16:51.923Z,98329.66
2022-08-05T18:19:22.911Z,98328.19
2022-08-05T18:22:09.137Z,98341.59
2022-08-05T18:24:41.130Z,98336.44
2022-08-05T18:27:18.627Z,98337.88
2022-08-05T18:29:53.465Z,98345.03
2022-08-05T18:32:28.389Z,98340.34
2022-08-05T18:35:01.173Z,98350.69
2022-08-05T18:37:34.717Z,98350.59
2022-08-05T18:40:34.365Z,98356.69
2022-08-05T18:43:00.375Z,98364.78
2022-08-05T18:45:40.884Z,98373.25
2022-08-05T18:48:11.018Z,98387.22
2022-08-05T18:50:57.280Z,98399.91
2022-08-05T18:53:34.769Z,98417.47
2022-08-05T18:56:12.414Z,98409.72
2022-08-05T18:58:39.497Z,98418.75
2022-08-05T19:01:09.639Z,98423.69
2022-08-05T19:03:55.224Z,98417.91
2022-08-05T19:06:34.372Z,98432.81
2022-08-05T19:09:09.358Z,98434.94
2022-08-05T19:11:59.607Z,98434.94
2022-08-05T19:14:53.329Z,98443.72
2022-08-05T19:17:12.937Z,98433.97
2022-08-05T19:19:46.931Z,98432.19
2022-08-05T19:22:17.123Z,98442.38
2022-08-05T19:24:54.546Z,98452.81
2022-08-05T19:27:27.750Z,98452.13
2022-08-05T19:29:57.182Z,98455.31
2022-08-05T19:32:26.216Z,98455.66
2022-08-05T19:34:55.907Z,98455.31
2022-08-05T19:37:35.331Z,98461.97
2022-08-05T19:40:10.988Z,98471.19
2022-08-05T19:42:38.811Z,98488.13
2022-08-05T19:45:07.016Z,98503.09
2022-08-05T19:47:34.947Z,98511.19
2022-08-05T19:50:04.951Z,98507.16
2022-08-05T19:52:34.197Z,98493.16
2022-08-05T19:55:06.970Z,98492.97
2022-08-05T19:58:19.646Z,98496.81
2022-08-05T20:00:36.359Z,98501.22
2022-08-05T20:03:05.274Z,98513.13
2022-08-05T20:05:43.280Z,98519.25
2022-08-05T20:08:16.441Z,98526.72
2022-08-05T20:10:43.205Z,98525.41
2022-08-05T20:13:10.891Z,98528.22
2022-08-05T20:15:51.646Z,98530.81
2022-08-05T20:18:33.721Z,98529.88
2022-08-05T20:21:04.814Z,98543.66
2022-08-05T20:23:40.384Z,98542.59
2022-08-05T20:26:23.297Z,98537.13
2022-08-05T20:28:55.949Z,98562.59
2022-08-05T20:31:36.988Z,98566.97
2022-08-05T20:34:10.534Z,98568.66
2022-08-05T20:36:39.145Z,98552.63
2022-08-05T20:39:10.340Z,98546.47
2022-08-05T20:41:43.946Z,98561.56
2022-08-05T20:44:17.422Z,98570.03
2022-08-05T20:46:46.939Z,98570.88
2022-08-05T20:49:13.952Z,98566.13
2022-08-05T20:51:40.561Z,98578.28
2022-08-05T20:54:07.227Z,98594.16
2022-08-05T20:56:42.446Z,98607.38
2022-08-05T20:59:15.915Z,98596.44
2022-08-05T21:01:46.253Z,98599.13
2022-08-05T21:04:13.617Z,98597.28
2022-08-05T21:06:45.279Z,98602.84
2022-08-05T21:09:12.681Z,98603.44
2022-08-05T21:12:06.568Z,98606.56
2022-08-05T21:14:27.596Z,98610.28
2022-08-05T21:16:55.063Z,98620.16
2022-08-05T21:19:21.593Z,98626.34
2022-08-05T21:21:50.429Z,98639.38
2022-08-05T21:24:19.744Z,98641.63
2022-08-05T21:26:53.285Z,98653.19
2022-08-05T21:29:26.344Z,98645.97
2022-08-05T21:31:58.389Z,98640.81
2022-08-05T21:34:24.965Z,98647.00
2022-08-05T21:36:51.690Z,98658.53
2022-08-05T21:39:26.733Z,98668.47
2022-08-05T21:42:01.817Z,98668.06
2022-08-05T21:44:29.331Z,98668.47
2022-08-05T21:46:58.266Z,98675.63
2022-08-05T21:49:48.485Z,98678.09
2022-08-05T21:52:15.992Z,98670.00
2022-08-05T21:54:54.833Z,98671.03
2022-08-05T21:57:31.466Z,98675.38
2022-08-05T22:00:11.306Z,98675.19
2022-08-05T22:02:41.531Z,98677.78
2022-08-05T22:05:09.255Z,98684.19
2022-08-05T22:07:40.248Z,98681.50
2022-08-05T22:10:26.512Z,98684.38
2022-08-05T22:12:58.782Z,98678.28
2022-08-05T22:16:00.918Z,98692.25
2022-08-05T22:18:13.325Z,98696.22
2022-08-05T22:20:41.646Z,98692.91
2022-08-05T22:24:02.539Z,98706.53
2022-08-05T22:26:53.659Z,98713.34
2022-08-05T22:29:26.239Z,98720.34
2022-08-05T22:31:55.154Z,98713.34
2022-08-05T22:34:28.665Z,98720.38
2022-08-05T22:36:58.430Z,98720.16
2022-08-05T22:39:32.542Z,98732.75
2022-08-05T22:42:09.591Z,98737.47
2022-08-05T22:44:38.771Z,98747.56
2022-08-05T22:47:06.030Z,98746.56
2022-08-05T22:50:18.504Z,98755.25
2022-08-05T22:52:32.293Z,98769.69
2022-08-05T22:55:01.734Z,98765.78
2022-08-05T22:57:36.167Z,98769.09
2022-08-05T23:00:06.147Z,98776.53
2022-08-05T23:02:35.281Z,98787.25
2022-08-05T23:05:14.436Z,98780.66
2022-08-05T23:07:45.010Z,98778.16
2022-08-05T23:10:16.191Z,98777.34
2022-08-05T23:12:47.924Z,98777.97
2022-08-05T23:15:18.989Z,98797.50
2022-08-05T23:18:00.761Z,98801.22
2022-08-05T23:20:29.754Z,98795.25
2022-08-05T23:22:56.619Z,98802.28
2022-08-05T23:25:52.713Z,98796.28
2022-08-05T23:28:12.365Z,98796.06
2022-08-05T23:30:39.992Z,98795.25
2022-08-05T23:33:16.513Z,98803.69
2022-08-05T23:35:55.824Z,98811.72
2022-08-05T23:38:24.199Z,98818.75
2022-08-05T23:40:52.854Z,98819.13
2022-08-05T23:43:24.841Z,98820.34
2022-08-05T23:46:03.484Z,98823.44
2022-08-05T23:48:30.017Z,98825.69
2022-08-05T23:50:56.516Z,98827.34
2022-08-05T23:53:28.571Z,98821.78
2022-08-05T23:56:11.760Z,98814.75
2022-08-05T23:58:38.521Z,98818.88
